Terminal Aerodrome Forecast
Issued by NWS

Home | Current Version | Previous Version | Text Only | Print | Product List | Glossary On
Versions: 1 2 3 4 5 6 7 8 9 10 11 12 13 14 15 16
000
FTUS43 KIND 042300
TAFLAF
TAF
KLAF 042330Z 0500/0524 09005KT 6SM BR VCSH BKN060
     FM050900 24002KT 5SM -SHRA VCTS BKN040CB
     FM051300 20004KT P6SM VCSH BKN050
     FM051800 07006KT P6SM VCTS BKN040CB
      AMD LTD TO CLD VIS AND WIND 0501/0513=

USA.gov is the U.S. government's official web portal to all federal, state and local government web resources and services.